Time;durP1;ratioP1;P1;durP2;ratioP2;P2;SDS_P1;SDS_P2;PMS_P1;PMS_P2;Temp;Humidity;BMP_temperature;BMP_pressure;BME280_temperature;BME280_humidity;BME280_pressure;Samples;Min_cycle;Max_cycle;Signal;HPM_P1;HPM_P2
2022/09/30 00:00:02;;;;;;;5.20;4.90;;;19.50;63.60;;;;;;5065517;28;44022;-77
2022/09/30 00:02:36;;;;;;;5.13;4.80;;;19.60;63.40;;;;;;5054445;28;43776;-75
2022/09/30 00:05:05;;;;;;;4.90;4.63;;;19.70;63.00;;;;;;5060875;28;43502;-74
2022/09/30 00:07:33;;;;;;;5.33;5.03;;;19.80;62.80;;;;;;5055018;28;43738;-74
2022/09/30 00:10:01;;;;;;;5.30;5.00;;;19.70;62.70;;;;;;5054724;28;43631;-76
2022/09/30 00:12:29;;;;;;;4.93;4.63;;;19.70;63.00;;;;;;5058398;28;43836;-77
2022/09/30 00:14:57;;;;;;;4.57;4.37;;;19.70;63.00;;;;;;5058106;28;43401;-76
2022/09/30 00:17:27;;;;;;;5.30;5.00;;;19.70;63.00;;;;;;5058567;28;43436;-75
2022/09/30 00:19:56;;;;;;;5.10;4.80;;;19.70;63.00;;;;;;5057462;28;43411;-79
2022/09/30 00:22:24;;;;;;;5.03;4.73;;;19.60;63.10;;;;;;5053647;28;43791;-78
2022/09/30 00:24:52;;;;;;;5.23;4.87;;;19.60;63.20;;;;;;5063880;28;43554;-77
2022/09/30 00:27:20;;;;;;;4.80;4.50;;;19.60;63.50;;;;;;5055292;28;43394;-78
2022/09/30 00:29:48;;;;;;;5.13;4.83;;;19.50;63.30;;;;;;5055378;28;43468;-77
2022/09/30 00:32:16;;;;;;;5.00;4.70;;;19.50;63.30;;;;;;5060192;28;43885;-75
2022/09/30 00:34:44;;;;;;;4.67;4.47;;;19.50;63.30;;;;;;5052604;28;43420;-77
2022/09/30 00:37:15;;;;;;;4.93;4.73;;;19.50;63.40;;;;;;5057889;28;43447;-76
2022/09/30 00:39:43;;;;;;;4.67;4.47;;;19.50;63.40;;;;;;5053083;28;43443;-78
2022/09/30 00:42:13;;;;;;;4.43;4.23;;;19.50;63.70;;;;;;5040196;28;44934;-78
2022/09/30 00:44:52;;;;;;;4.77;4.47;;;19.50;63.60;;;;;;5053872;28;44965;-78
2022/09/30 00:47:36;;;;;;;4.67;4.47;;;19.60;63.20;;;;;;5059377;28;43406;-76
2022/09/30 00:50:10;;;;;;;4.70;4.50;;;19.80;62.90;;;;;;5056158;28;43387;-77
2022/09/30 00:52:39;;;;;;;4.33;4.13;;;19.80;62.50;;;;;;5058928;28;44017;-77
2022/09/30 00:55:09;;;;;;;4.57;4.30;;;19.70;62.50;;;;;;5057848;28;43435;-77
2022/09/30 00:57:36;;;;;;;4.27;4.07;;;19.70;62.80;;;;;;5057361;28;43541;-77
2022/09/30 01:00:05;;;;;;;4.13;3.93;;;19.70;62.70;;;;;;5061778;28;43417;-74
2022/09/30 01:02:33;;;;;;;4.03;3.90;;;19.70;62.70;;;;;;5053251;28;43596;-78
2022/09/30 01:05:01;;;;;;;3.83;3.70;;;19.70;63.00;;;;;;5055622;28;44042;-78
2022/09/30 01:07:29;;;;;;;4.10;3.90;;;19.60;63.00;;;;;;5056060;28;44090;-79
2022/09/30 01:09:59;;;;;;;4.53;4.23;;;19.50;63.20;;;;;;5056923;28;43394;-76
2022/09/30 01:12:26;;;;;;;4.50;4.30;;;19.60;63.20;;;;;;5058763;28;43944;-77
2022/09/30 01:14:54;;;;;;;4.00;3.80;;;19.50;63.10;;;;;;5053363;28;43776;-76
2022/09/30 01:17:26;;;;;;;3.70;3.60;;;19.50;63.20;;;;;;5048949;28;43443;-77
2022/09/30 01:20:13;;;;;;;4.30;4.10;;;19.50;63.30;;;;;;5059195;28;43819;-77
2022/09/30 01:22:41;;;;;;;4.50;4.30;;;19.50;63.50;;;;;;5036543;28;45675;-75
2022/09/30 01:25:51;;;;;;;4.60;4.30;;;19.50;63.50;;;;;;5057161;28;45025;-76
2022/09/30 01:28:31;;;;;;;3.77;3.67;;;19.60;63.20;;;;;;5059107;28;43941;-75
2022/09/30 01:31:13;;;;;;;4.17;3.97;;;19.70;62.70;;;;;;5060208;28;43488;-75
2022/09/30 01:33:45;;;;;;;4.00;3.80;;;19.80;62.40;;;;;;5050182;28;45148;-77
2022/09/30 01:36:24;;;;;;;4.17;3.90;;;19.80;62.40;;;;;;5056673;28;43469;-76
2022/09/30 01:38:55;;;;;;;3.73;3.63;;;19.70;62.60;;;;;;5056335;28;43389;-77
2022/09/30 01:41:26;;;;;;;3.40;3.30;;;19.70;62.50;;;;;;5053908;28;43403;-77
2022/09/30 01:43:58;;;;;;;4.00;3.80;;;19.70;62.60;;;;;;5034508;28;45007;-77
2022/09/30 01:46:32;;;;;;;4.00;3.70;;;19.70;62.80;;;;;;5055401;28;43983;-76
2022/09/30 01:49:01;;;;;;;3.77;3.67;;;19.60;62.90;;;;;;5059097;28;43795;-72
2022/09/30 01:51:32;;;;;;;3.57;3.47;;;19.60;63.10;;;;;;5059418;28;43397;-77
2022/09/30 01:54:02;;;;;;;3.70;3.60;;;19.60;63.10;;;;;;5051868;28;43612;-77
2022/09/30 01:56:32;;;;;;;3.43;3.33;;;19.50;63.00;;;;;;5053544;28;43569;-77
2022/09/30 01:59:01;;;;;;;3.70;3.60;;;19.50;63.00;;;;;;5054882;28;43451;-79
2022/09/30 02:01:34;;;;;;;3.63;3.53;;;19.50;63.10;;;;;;5037430;28;43431;-76
2022/09/30 02:04:03;;;;;;;3.97;3.87;;;19.50;63.30;;;;;;5029977;28;46020;-77
2022/09/30 02:06:34;;;;;;;3.80;3.63;;;19.50;63.30;;;;;;5058017;28;43438;-76
2022/09/30 02:09:04;;;;;;;3.70;3.60;;;19.60;63.00;;;;;;5062970;28;43992;-78
2022/09/30 02:11:33;;;;;;;3.83;3.63;;;19.70;62.70;;;;;;5055254;28;43545;-77
2022/09/30 02:14:02;;;;;;;3.70;3.60;;;19.70;62.40;;;;;;5054036;28;43600;-77
2022/09/30 02:16:34;;;;;;;3.87;3.77;;;19.70;62.50;;;;;;5053638;28;43523;-76
2022/09/30 02:19:04;;;;;;;3.50;3.40;;;19.70;62.70;;;;;;5056147;28;43462;-78
2022/09/30 02:21:33;;;;;;;3.43;3.33;;;19.70;62.70;;;;;;5048467;28;43493;-77
2022/09/30 02:24:05;;;;;;;3.57;3.47;;;19.70;62.70;;;;;;5060512;28;43925;-76
2022/09/30 02:26:34;;;;;;;3.63;3.50;;;19.60;62.70;;;;;;5056542;28;43514;-77
2022/09/30 02:29:04;;;;;;;3.47;3.37;;;19.60;62.80;;;;;;5051335;28;43484;-77
2022/09/30 02:31:36;;;;;;;3.17;3.07;;;19.50;62.90;;;;;;5057386;28;43478;-77
2022/09/30 02:34:05;;;;;;;3.27;3.17;;;19.50;63.00;;;;;;5057634;28;43920;-76
2022/09/30 02:36:34;;;;;;;3.40;3.30;;;19.50;62.90;;;;;;5058801;28;43446;-77
2022/09/30 02:39:04;;;;;;;3.13;3.03;;;19.50;62.90;;;;;;5058808;28;43435;-77
2022/09/30 02:41:34;;;;;;;3.07;2.97;;;19.50;63.00;;;;;;5050783;28;43400;-77
2022/09/30 02:44:02;;;;;;;3.40;3.30;;;19.40;63.00;;;;;;5052220;28;43886;-76
2022/09/30 02:46:37;;;;;;;3.30;3.10;;;19.50;63.30;;;;;;5055070;28;43493;-78
2022/09/30 02:49:06;;;;;;;3.63;3.53;;;19.50;63.10;;;;;;5056061;28;43480;-74
2022/09/30 02:51:38;;;;;;;3.13;3.03;;;19.60;62.70;;;;;;5047899;28;43962;-77
2022/09/30 02:54:11;;;;;;;3.40;3.30;;;19.80;62.40;;;;;;5062467;28;43627;-77
2022/09/30 02:56:43;;;;;;;3.17;3.07;;;19.80;62.00;;;;;;5032209;28;44687;-78
2022/09/30 02:59:10;;;;;;;3.10;3.00;;;19.80;62.10;;;;;;5056023;28;43810;-78
2022/09/30 03:01:40;;;;;;;2.93;2.83;;;19.70;62.30;;;;;;5062964;28;43883;-76
2022/09/30 03:04:11;;;;;;;3.23;3.13;;;19.70;62.20;;;;;;5059471;28;43633;-78
2022/09/30 03:06:39;;;;;;;3.00;2.93;;;19.70;62.30;;;;;;5034613;28;44388;-76
2022/09/30 03:09:07;;;;;;;3.20;3.10;;;19.70;62.50;;;;;;5051816;28;43432;-78
2022/09/30 03:11:36;;;;;;;3.00;2.90;;;19.60;62.50;;;;;;5064725;28;43424;-79
2022/09/30 03:14:31;;;;;;;3.20;3.10;;;19.50;62.60;;;;;;5064742;28;45659;-77
2022/09/30 03:17:26;;;;;;;3.00;2.90;;;19.50;62.80;;;;;;5058452;28;43472;-77
2022/09/30 03:20:13;;;;;;;3.27;3.17;;;19.50;62.70;;;;;;5049852;28;43510;-77
2022/09/30 03:22:51;;;;;;;3.00;2.90;;;19.50;62.70;;;;;;5065837;28;43450;-77
2022/09/30 03:25:25;;;;;;;2.67;2.63;;;19.50;62.80;;;;;;5064535;28;45411;-77
2022/09/30 03:28:00;;;;;;;2.93;2.83;;;19.50;63.00;;;;;;5062041;28;43496;-77
2022/09/30 03:30:28;;;;;;;2.77;2.67;;;19.50;63.00;;;;;;5056513;28;43842;-76
2022/09/30 03:33:04;;;;;;;2.97;2.87;;;19.50;63.00;;;;;;5061763;28;43579;-76
2022/09/30 03:35:34;;;;;;;2.77;2.70;;;19.50;63.00;;;;;;5057252;28;43879;-75
2022/09/30 03:38:04;;;;;;;3.00;2.90;;;19.50;63.00;;;;;;5057396;28;43898;-78
2022/09/30 03:40:36;;;;;;;2.93;2.90;;;19.40;62.90;;;;;;5059671;28;43476;-77
2022/09/30 03:43:06;;;;;;;2.93;2.83;;;19.40;63.00;;;;;;5035886;28;43984;-75
2022/09/30 03:45:35;;;;;;;2.60;2.60;;;19.50;63.00;;;;;;5051468;28;43607;-78
2022/09/30 03:48:06;;;;;;;2.80;2.70;;;19.60;62.70;;;;;;5052800;28;43460;-77
2022/09/30 03:50:34;;;;;;;2.80;2.70;;;19.70;62.30;;;;;;5059744;28;43512;-79
2022/09/30 03:53:02;;;;;;;2.90;2.80;;;19.80;61.80;;;;;;5059332;28;44046;-77
2022/09/30 03:55:30;;;;;;;2.77;2.67;;;20.00;61.40;;;;;;5045087;28;45421;-75
2022/09/30 03:57:58;;;;;;;2.50;2.50;;;20.00;61.10;;;;;;5061748;28;43491;-74
2022/09/30 04:00:26;;;;;;;2.80;2.70;;;20.00;61.30;;;;;;5061283;28;43463;-78
2022/09/30 04:02:54;;;;;;;2.30;2.30;;;19.90;61.60;;;;;;5059186;28;43451;-77
2022/09/30 04:05:26;;;;;;;2.80;2.70;;;19.80;61.80;;;;;;5056037;28;43671;-77
2022/09/30 04:07:54;;;;;;;2.57;2.47;;;19.70;62.10;;;;;;5050812;28;43586;-75
2022/09/30 04:10:22;;;;;;;2.63;2.53;;;19.70;62.40;;;;;;5062674;28;43560;-77
2022/09/30 04:12:49;;;;;;;2.90;2.80;;;19.70;62.00;;;;;;5059273;28;43538;-76
2022/09/30 04:15:17;;;;;;;2.53;2.53;;;19.60;62.00;;;;;;5052418;28;44019;-76
2022/09/30 04:17:45;;;;;;;2.57;2.47;;;19.60;62.20;;;;;;5051683;28;43504;-77
2022/09/30 04:20:13;;;;;;;2.40;2.40;;;19.50;62.20;;;;;;5053873;28;43392;-73
2022/09/30 04:22:42;;;;;;;2.77;2.67;;;19.50;62.40;;;;;;5055602;28;43507;-78
2022/09/30 04:25:11;;;;;;;2.70;2.60;;;19.50;62.50;;;;;;5051770;28;43937;-78
2022/09/30 04:27:39;;;;;;;3.03;2.83;;;19.60;62.30;;;;;;5053719;28;43392;-78
2022/09/30 04:30:07;;;;;;;2.50;2.40;;;19.70;62.00;;;;;;5063607;28;43558;-76
2022/09/30 04:32:35;;;;;;;2.60;2.50;;;19.70;61.90;;;;;;5053431;28;43496;-74
2022/09/30 04:35:03;;;;;;;2.47;2.37;;;19.70;62.00;;;;;;5053177;28;43904;-76
2022/09/30 04:37:31;;;;;;;2.57;2.47;;;19.60;62.10;;;;;;5064265;28;44310;-78
2022/09/30 04:40:01;;;;;;;2.27;2.27;;;19.60;62.00;;;;;;5053836;28;43387;-75
2022/09/30 04:42:29;;;;;;;2.37;2.37;;;19.60;62.00;;;;;;5030890;28;43648;-77
2022/09/30 04:44:58;;;;;;;2.70;2.60;;;19.60;62.20;;;;;;5057316;28;43929;-77
2022/09/30 04:47:25;;;;;;;2.40;2.40;;;19.60;62.30;;;;;;5048729;28;43608;-78
2022/09/30 04:49:53;;;;;;;2.30;2.30;;;19.50;62.40;;;;;;5057669;28;43370;-78
2022/09/30 04:52:21;;;;;;;2.27;2.27;;;19.50;62.50;;;;;;5054823;28;43490;-77
2022/09/30 04:54:49;;;;;;;2.07;2.07;;;19.50;62.40;;;;;;5062655;28;45253;-76
2022/09/30 04:57:18;;;;;;;2.30;2.30;;;19.50;62.40;;;;;;5055880;28;43478;-75
2022/09/30 04:59:46;;;;;;;2.20;2.10;;;19.50;62.40;;;;;;5053269;28;43419;-75
2022/09/30 05:02:14;;;;;;;2.27;2.27;;;19.50;62.40;;;;;;5061583;28;43557;-77
2022/09/30 05:04:42;;;;;;;2.33;2.33;;;19.50;62.60;;;;;;5059566;28;45418;-76
2022/09/30 05:07:10;;;;;;;2.20;2.20;;;19.50;62.50;;;;;;5052031;28;43376;-77
2022/09/30 05:09:38;;;;;;;2.30;2.30;;;19.60;62.20;;;;;;5055969;28;43455;-77
2022/09/30 05:12:07;;;;;;;2.30;2.30;;;19.70;62.50;;;;;;5035929;28;44038;-76
2022/09/30 05:14:36;;;;;;;2.00;2.00;;;19.80;61.40;;;;;;5047740;28;45610;-74
2022/09/30 05:17:04;;;;;;;2.50;2.40;;;19.80;61.50;;;;;;5032789;28;44231;-77
2022/09/30 05:19:32;;;;;;;2.53;2.43;;;19.70;61.60;;;;;;5052377;28;43441;-78
2022/09/30 05:21:59;;;;;;;2.37;2.27;;;19.70;61.50;;;;;;5060031;28;43458;-77
2022/09/30 05:24:28;;;;;;;2.40;2.23;;;19.70;61.60;;;;;;5053272;28;45945;-77
2022/09/30 05:26:56;;;;;;;2.07;2.07;;;19.70;61.80;;;;;;5033094;28;44342;-78
2022/09/30 05:29:24;;;;;;;1.87;1.87;;;19.60;61.90;;;;;;5047251;28;43460;-79
2022/09/30 05:31:54;;;;;;;2.20;2.20;;;19.60;62.10;;;;;;5055251;28;43498;-77
2022/09/30 05:34:21;;;;;;;2.23;2.23;;;19.60;62.20;;;;;;5032511;28;45461;-77
2022/09/30 05:36:49;;;;;;;2.33;2.23;;;19.50;62.00;;;;;;5055499;28;43367;-77
2022/09/30 05:39:17;;;;;;;2.10;2.10;;;19.50;62.00;;;;;;5053540;28;44213;-76
2022/09/30 05:41:48;;;;;;;2.00;2.00;;;19.50;62.10;;;;;;5047161;28;43361;-77
2022/09/30 05:44:16;;;;;;;2.07;2.07;;;19.50;62.30;;;;;;5047621;28;43596;-77
2022/09/30 05:46:44;;;;;;;2.30;2.30;;;19.50;62.40;;;;;;5054489;28;43466;-78
2022/09/30 05:49:13;;;;;;;2.10;2.10;;;19.50;62.40;;;;;;5061249;28;43520;-78
2022/09/30 05:51:41;;;;;;;2.30;2.20;;;19.50;62.10;;;;;;5054927;28;43953;-76
2022/09/30 05:54:09;;;;;;;2.10;2.10;;;19.70;61.80;;;;;;5061613;28;45715;-76
2022/09/30 05:56:38;;;;;;;2.00;2.00;;;19.80;61.40;;;;;;5058800;28;43488;-76
2022/09/30 05:59:05;;;;;;;2.00;2.00;;;19.80;61.30;;;;;;5057938;28;43394;-74
2022/09/30 06:01:33;;;;;;;2.20;2.20;;;19.70;61.40;;;;;;5035837;28;43592;-76
2022/09/30 06:04:02;;;;;;;2.03;2.03;;;19.70;61.50;;;;;;5051949;28;43965;-78
2022/09/30 06:06:31;;;;;;;2.20;2.10;;;19.70;61.50;;;;;;5032991;28;44932;-77
2022/09/30 06:08:59;;;;;;;2.10;2.10;;;19.70;61.70;;;;;;5055654;28;43595;-77
2022/09/30 06:11:27;;;;;;;2.10;2.10;;;19.60;61.70;;;;;;5060229;28;43392;-75
2022/09/30 06:13:56;;;;;;;2.00;2.00;;;19.50;61.80;;;;;;5052243;28;43850;-77
2022/09/30 06:16:24;;;;;;;2.10;2.10;;;19.50;62.00;;;;;;5050238;28;44543;-78
2022/09/30 06:18:53;;;;;;;2.27;2.17;;;19.50;62.30;;;;;;5056729;28;43501;-78
2022/09/30 06:21:21;;;;;;;1.90;1.80;;;19.50;62.00;;;;;;5062307;28;43424;-77
2022/09/30 06:23:50;;;;;;;2.00;2.00;;;19.50;62.10;;;;;;5056723;28;43655;-78
2022/09/30 06:26:18;;;;;;;2.07;2.07;;;19.50;62.20;;;;;;5048946;28;43455;-78
2022/09/30 06:28:46;;;;;;;2.00;2.00;;;19.40;62.30;;;;;;5054790;28;43378;-75
2022/09/30 06:31:14;;;;;;;2.00;2.00;;;19.40;62.20;;;;;;5053774;28;43408;-78
2022/09/30 06:33:42;;;;;;;2.13;2.13;;;19.40;62.10;;;;;;5054292;28;45637;-77
2022/09/30 06:36:10;;;;;;;1.90;1.90;;;19.40;62.20;;;;;;5052452;28;43970;-78
2022/09/30 06:38:39;;;;;;;1.90;1.90;;;19.40;62.30;;;;;;5051031;28;43937;-77
2022/09/30 06:41:08;;;;;;;1.97;1.97;;;19.40;62.30;;;;;;5047299;28;43922;-77
2022/09/30 06:43:36;;;;;;;1.90;1.90;;;19.40;62.60;;;;;;5057056;28;44053;-78
2022/09/30 06:46:23;;;;;;;2.33;2.33;;;19.40;62.30;;;;;;5053415;28;43914;-76
2022/09/30 06:48:58;;;;;;;2.00;2.00;;;19.60;62.00;;;;;;5050433;28;43416;-78
2022/09/30 06:51:41;;;;;;;2.37;2.30;;;19.70;61.50;;;;;;5052328;28;43415;-78
2022/09/30 06:54:09;;;;;;;2.10;2.10;;;19.80;60.90;;;;;;5051038;28;44005;-78
2022/09/30 06:56:38;;;;;;;2.00;2.00;;;19.90;60.70;;;;;;5051607;28;43447;-78
2022/09/30 06:59:06;;;;;;;2.23;2.23;;;19.90;60.80;;;;;;5062637;28;43346;-76
2022/09/30 07:01:34;;;;;;;2.40;2.20;;;19.80;61.10;;;;;;5058467;28;43391;-72
2022/09/30 07:04:08;;;;;;;2.00;2.00;;;19.70;61.30;;;;;;5051917;28;43888;-77
2022/09/30 07:06:37;;;;;;;2.07;2.07;;;19.60;61.60;;;;;;5049423;28;43528;-77
2022/09/30 07:09:05;;;;;;;2.10;2.03;;;19.60;61.70;;;;;;5059982;28;43451;-75
2022/09/30 07:11:33;;;;;;;2.20;2.20;;;19.50;61.60;;;;;;5056396;28;43361;-76
2022/09/30 07:14:03;;;;;;;2.20;2.20;;;19.50;61.80;;;;;;5057817;28;43900;-78
2022/09/30 07:16:32;;;;;;;1.80;1.80;;;19.50;62.00;;;;;;5051186;28;43451;-78
2022/09/30 07:19:00;;;;;;;2.30;2.30;;;19.40;62.00;;;;;;5060932;28;43480;-76
2022/09/30 07:21:30;;;;;;;1.93;1.93;;;19.40;62.20;;;;;;5057602;28;43411;-77
2022/09/30 07:23:59;;;;;;;1.93;1.93;;;19.40;62.00;;;;;;5054756;28;43923;-77
2022/09/30 07:26:27;;;;;;;1.77;1.77;;;19.40;62.00;;;;;;5051177;28;43425;-77
2022/09/30 07:28:55;;;;;;;1.80;1.80;;;19.40;62.10;;;;;;5061059;28;43949;-75
2022/09/30 07:31:25;;;;;;;2.10;2.10;;;19.40;62.20;;;;;;5051551;28;43391;-77
2022/09/30 07:34:02;;;;;;;2.20;2.20;;;19.40;62.30;;;;;;5049438;28;43873;-74
2022/09/30 07:36:30;;;;;;;2.00;2.00;;;19.30;62.40;;;;;;5061933;28;43364;-75
2022/09/30 07:39:04;;;;;;;1.90;1.90;;;19.40;62.20;;;;;;5047117;28;43508;-77
2022/09/30 07:41:32;;;;;;;2.00;2.00;;;19.50;61.90;;;;;;5054014;28;43444;-76
2022/09/30 07:44:01;;;;;;;1.90;1.90;;;19.70;61.50;;;;;;5050504;28;45241;-77
2022/09/30 07:46:31;;;;;;;1.90;1.90;;;19.80;61.00;;;;;;5055789;28;43415;-76
2022/09/30 07:49:01;;;;;;;1.97;1.97;;;19.90;60.70;;;;;;5054640;28;43427;-77
2022/09/30 07:51:30;;;;;;;1.90;1.90;;;19.90;60.80;;;;;;5050321;28;43392;-78
2022/09/30 07:53:59;;;;;;;2.10;2.10;;;19.70;61.00;;;;;;5053204;28;43853;-77
2022/09/30 07:56:27;;;;;;;1.80;1.80;;;19.70;61.40;;;;;;5055805;28;43991;-78
2022/09/30 07:59:03;;;;;;;2.10;2.10;;;19.60;61.60;;;;;;5055966;28;43427;-76
2022/09/30 08:01:33;;;;;;;2.00;2.00;;;19.50;61.80;;;;;;5064987;28;43464;-77
2022/09/30 08:04:02;;;;;;;1.90;1.80;;;19.50;61.70;;;;;;5057868;28;43845;-78
2022/09/30 08:06:30;;;;;;;2.00;2.00;;;19.50;61.90;;;;;;5063907;28;44831;-77
2022/09/30 08:08:58;;;;;;;1.77;1.77;;;19.40;62.20;;;;;;5052104;28;43336;-76
2022/09/30 08:11:26;;;;;;;1.90;1.80;;;19.40;62.10;;;;;;5057790;28;43502;-77
2022/09/30 08:13:55;;;;;;;2.00;2.00;;;19.40;62.30;;;;;;5052282;28;43878;-78
2022/09/30 08:16:24;;;;;;;1.97;1.87;;;19.50;62.40;;;;;;5045960;28;44692;-77
2022/09/30 08:18:55;;;;;;;1.90;1.90;;;19.50;62.00;;;;;;5058616;28;43464;-78
2022/09/30 08:21:25;;;;;;;2.37;2.27;;;19.70;61.70;;;;;;5063892;28;43981;-76
2022/09/30 08:23:52;;;;;;;2.00;2.00;;;19.60;61.50;;;;;;5056641;28;43605;-76
2022/09/30 08:26:20;;;;;;;2.03;2.03;;;19.60;61.70;;;;;;5056105;28;43482;-76
2022/09/30 08:28:48;;;;;;;2.00;2.00;;;19.50;61.80;;;;;;5053261;28;43427;-78
2022/09/30 08:31:17;;;;;;;2.00;2.00;;;19.60;61.80;;;;;;5056780;28;43575;-78
2022/09/30 08:33:45;;;;;;;1.60;1.60;;;19.50;61.80;;;;;;5055545;28;43842;-76
2022/09/30 08:36:16;;;;;;;1.70;1.70;;;19.50;62.00;;;;;;5052566;28;44671;-77
2022/09/30 08:38:44;;;;;;;1.70;1.70;;;19.50;62.10;;;;;;5052073;28;43457;-77
2022/09/30 08:41:25;;;;;;;1.90;1.80;;;19.40;62.20;;;;;;5052959;28;43356;-77
2022/09/30 08:43:58;;;;;;;1.70;1.70;;;19.40;62.50;;;;;;5055205;28;43892;-76
2022/09/30 08:46:32;;;;;;;1.77;1.77;;;19.40;62.30;;;;;;5056033;28;43401;-77
2022/09/30 08:49:03;;;;;;;1.60;1.60;;;19.40;62.30;;;;;;5054237;28;43428;-76
2022/09/30 08:51:35;;;;;;;1.67;1.67;;;19.40;62.40;;;;;;5052365;28;43342;-77
2022/09/30 08:54:05;;;;;;;1.83;1.83;;;19.40;62.50;;;;;;5063986;28;46090;-76
2022/09/30 08:56:33;;;;;;;1.90;1.90;;;19.40;62.60;;;;;;5048629;28;43512;-78
2022/09/30 08:59:06;;;;;;;1.90;1.90;;;19.40;62.70;;;;;;5060467;28;43957;-76
2022/09/30 09:01:35;;;;;;;1.77;1.77;;;19.50;62.50;;;;;;5051764;28;43380;-75
2022/09/30 09:04:04;;;;;;;1.60;1.60;;;19.60;62.20;;;;;;5050074;28;43687;-77
2022/09/30 09:06:36;;;;;;;1.80;1.80;;;19.70;61.70;;;;;;5050693;28;43452;-76
2022/09/30 09:09:20;;;;;;;1.73;1.60;;;19.80;61.40;;;;;;5050628;28;43523;-78
2022/09/30 09:11:55;;;;;;;1.67;1.67;;;19.80;61.40;;;;;;5055560;28;43486;-77
2022/09/30 09:14:30;;;;;;;1.70;1.60;;;19.70;61.70;;;;;;5058432;28;43671;-76
2022/09/30 09:17:05;;;;;;;1.43;1.43;;;19.60;61.80;;;;;;5064171;28;44683;-78
2022/09/30 09:19:37;;;;;;;1.50;1.50;;;19.60;62.20;;;;;;5056247;28;43411;-77
2022/09/30 09:22:07;;;;;;;1.63;1.63;;;19.50;62.30;;;;;;5052367;28;43931;-74
2022/09/30 09:24:37;;;;;;;1.80;1.80;;;19.50;62.30;;;;;;5051621;28;43615;-77
2022/09/30 09:27:16;;;;;;;1.40;1.40;;;19.50;63.00;;;;;;5044224;28;44331;-75
2022/09/30 09:29:49;;;;;;;1.77;1.77;;;19.40;62.40;;;;;;5051657;28;43834;-77
2022/09/30 09:32:18;;;;;;;1.40;1.40;;;19.40;62.50;;;;;;5030539;28;43538;-76
2022/09/30 09:34:47;;;;;;;1.70;1.70;;;19.40;62.60;;;;;;5051571;28;45328;-75
2022/09/30 09:37:20;;;;;;;1.70;1.70;;;19.40;62.70;;;;;;5054193;28;44024;-74
2022/09/30 09:40:03;;;;;;;1.70;1.70;;;19.50;62.50;;;;;;5057479;28;44000;-77
2022/09/30 09:42:41;;;;;;;1.60;1.60;;;19.60;62.10;;;;;;5048444;28;43448;-77
2022/09/30 09:45:13;;;;;;;1.90;1.90;;;19.70;61.90;;;;;;5060329;28;45657;-78
2022/09/30 09:47:44;;;;;;;1.50;1.50;;;19.60;61.90;;;;;;5058241;28;43885;-77
2022/09/30 09:50:13;;;;;;;1.50;1.50;;;19.60;62.80;;;;;;5052877;28;43400;-79
2022/09/30 09:53:09;;;;;;;1.67;1.67;;;19.60;62.10;;;;;;5053562;28;43529;-78
2022/09/30 09:55:38;;;;;;;1.60;1.60;;;19.60;62.20;;;;;;5050114;28;46021;-77
2022/09/30 09:58:06;;;;;;;1.40;1.40;;;19.60;62.30;;;;;;5052081;28;43464;-73
2022/09/30 10:03:24;;;;;;;1.50;1.50;;;19.50;62.40;;;;;;5052643;28;43414;-78
2022/09/30 10:06:03;;;;;;;1.60;1.60;;;19.50;63.30;;;;;;5054175;28;43847;-77
2022/09/30 10:08:33;;;;;;;1.37;1.37;;;19.50;62.70;;;;;;5058386;28;43510;-77
2022/09/30 10:11:03;;;;;;;1.50;1.50;;;19.50;62.70;;;;;;5042339;28;43393;-74
2022/09/30 10:13:31;;;;;;;1.40;1.40;;;19.50;62.80;;;;;;5060090;28;43427;-76
2022/09/30 10:16:00;;;;;;;1.67;1.40;;;19.50;63.00;;;;;;5051674;28;43669;-77
2022/09/30 10:18:29;;;;;;;1.60;1.50;;;19.50;63.40;;;;;;5060858;28;43374;-76
2022/09/30 10:20:58;;;;;;;1.50;1.50;;;19.50;63.50;;;;;;5060752;28;43356;-75
2022/09/30 10:23:30;;;;;;;1.50;1.40;;;19.70;63.30;;;;;;5052812;28;43452;-76
2022/09/30 10:26:03;;;;;;;1.60;1.60;;;19.80;63.00;;;;;;5051299;28;43945;-78
2022/09/30 10:28:33;;;;;;;1.80;1.77;;;19.70;62.70;;;;;;5050436;28;43507;-77
2022/09/30 10:31:05;;;;;;;1.33;1.33;;;19.70;62.70;;;;;;5053614;28;43429;-76
2022/09/30 10:33:35;;;;;;;1.37;1.37;;;19.70;63.30;;;;;;5055259;28;43614;-78
2022/09/30 10:36:06;;;;;;;1.43;1.43;;;19.70;63.10;;;;;;5063754;28;44069;-78
2022/09/30 10:38:34;;;;;;;1.60;1.50;;;19.70;63.10;;;;;;5050185;28;43437;-77
2022/09/30 10:41:04;;;;;;;1.70;1.70;;;19.60;63.10;;;;;;5053041;28;43334;-77
2022/09/30 10:43:37;;;;;;;1.40;1.40;;;19.60;63.30;;;;;;5044769;28;43492;-76
2022/09/30 10:46:05;;;;;;;1.30;1.30;;;19.60;63.60;;;;;;5054469;28;43868;-75
2022/09/30 10:48:54;;;;;;;1.43;1.40;;;19.60;63.80;;;;;;5058018;28;43434;-77
2022/09/30 10:51:24;;;;;;;1.70;1.60;;;19.60;63.70;;;;;;5054879;28;43442;-76
2022/09/30 10:53:53;;;;;;;1.37;1.37;;;19.60;63.60;;;;;;5055506;28;43477;-77
2022/09/30 10:56:40;;;;;;;1.30;1.30;;;19.50;63.60;;;;;;5056240;28;43601;-76
2022/09/30 10:59:26;;;;;;;1.47;1.47;;;19.50;63.70;;;;;;5054529;28;44173;-77
2022/09/30 11:01:56;;;;;;;1.40;1.40;;;19.60;64.20;;;;;;5054849;28;43539;-77
2022/09/30 11:04:28;;;;;;;1.47;1.47;;;19.60;64.00;;;;;;5057836;28;43403;-76
2022/09/30 11:07:03;;;;;;;1.43;1.43;;;19.80;63.70;;;;;;5059076;28;44052;-76
2022/09/30 11:09:34;;;;;;;1.60;1.60;;;19.90;63.30;;;;;;5057251;28;44150;-76
2022/09/30 11:12:08;;;;;;;1.50;1.40;;;19.90;63.20;;;;;;5067347;28;44014;-74
2022/09/30 11:14:39;;;;;;;1.50;1.40;;;19.80;63.10;;;;;;5054718;28;43395;-77
2022/09/30 11:17:11;;;;;;;1.50;1.50;;;19.80;63.60;;;;;;5054212;28;43628;-76
2022/09/30 11:19:41;;;;;;;1.40;1.30;;;19.80;63.30;;;;;;5062702;28;43418;-76
2022/09/30 11:22:19;;;;;;;1.20;1.20;;;19.80;63.40;;;;;;5056415;28;43756;-75
2022/09/30 11:24:49;;;;;;;1.50;1.50;;;19.70;63.40;;;;;;5060415;28;43942;-77
2022/09/30 11:27:20;;;;;;;1.40;1.30;;;19.70;63.70;;;;;;5060697;28;45270;-77
2022/09/30 11:30:01;;;;;;;1.40;1.40;;;19.70;64.10;;;;;;5055062;28;43408;-76
2022/09/30 11:32:36;;;;;;;1.63;1.30;;;19.70;64.10;;;;;;5055949;28;44017;-77
2022/09/30 11:35:13;;;;;;;1.40;1.40;;;19.70;64.00;;;;;;5045937;28;43611;-73
2022/09/30 11:38:04;;;;;;;1.50;1.50;;;19.70;64.00;;;;;;5056018;28;44390;-75
2022/09/30 11:40:35;;;;;;;1.30;1.30;;;19.60;64.00;;;;;;5056525;28;43956;-76
2022/09/30 11:43:11;;;;;;;1.47;1.23;;;19.60;64.20;;;;;;5061396;28;43981;-74
2022/09/30 11:45:46;;;;;;;1.40;1.40;;;19.60;64.50;;;;;;5052871;28;43555;-77
2022/09/30 11:48:27;;;;;;;1.43;1.43;;;19.70;64.30;;;;;;5056792;28;43606;-75
2022/09/30 11:51:04;;;;;;;1.30;1.30;;;19.90;63.90;;;;;;5058773;28;43443;-75
2022/09/30 11:53:38;;;;;;;1.40;1.40;;;19.90;63.50;;;;;;5062394;28;43340;-76
2022/09/30 11:56:11;;;;;;;1.30;1.30;;;19.90;63.60;;;;;;5055597;28;43451;-73
2022/09/30 11:58:42;;;;;;;1.30;1.30;;;19.90;64.10;;;;;;5048994;28;43862;-75
2022/09/30 12:01:14;;;;;;;1.60;1.60;;;19.80;64.00;;;;;;5055039;28;43539;-75
2022/09/30 12:03:43;;;;;;;1.50;1.50;;;19.80;63.80;;;;;;5049901;28;44131;-75
2022/09/30 12:06:14;;;;;;;1.10;1.10;;;19.80;63.90;;;;;;5061361;28;43449;-77
2022/09/30 12:08:45;;;;;;;1.40;1.40;;;19.70;64.00;;;;;;5045429;28;45624;-75
2022/09/30 12:11:14;;;;;;;1.40;1.40;;;19.70;64.40;;;;;;5060229;28;43510;-77
2022/09/30 12:13:46;;;;;;;1.20;1.20;;;19.70;64.50;;;;;;5050136;28;43503;-77
2022/09/30 12:16:18;;;;;;;1.40;1.40;;;19.70;64.40;;;;;;5058428;28;43452;-77
2022/09/30 12:18:48;;;;;;;2.10;1.40;;;19.70;64.40;;;;;;5051229;28;44465;-76
2022/09/30 12:21:18;;;;;;;1.40;1.40;;;19.70;64.50;;;;;;5053097;28;43414;-78
2022/09/30 12:23:47;;;;;;;1.20;1.20;;;19.70;64.60;;;;;;5065502;28;43492;-77
2022/09/30 12:26:15;;;;;;;1.40;1.40;;;19.70;65.00;;;;;;5056025;28;43340;-76
2022/09/30 12:31:41;;;;;;;1.43;1.43;;;19.90;64.60;;;;;;5055443;28;44015;-74
2022/09/30 12:34:18;;;;;;;1.30;1.30;;;20.00;64.10;;;;;;5059539;28;43878;-76
2022/09/30 12:37:11;;;;;;;1.50;1.50;;;20.00;64.00;;;;;;5060585;28;43462;-77
2022/09/30 12:40:11;;;;;;;1.50;1.50;;;19.90;64.10;;;;;;5049662;28;43957;-75
2022/09/30 12:43:06;;;;;;;1.43;1.43;;;19.90;64.30;;;;;;5057111;28;43984;-76
2022/09/30 12:45:53;;;;;;;1.70;1.70;;;19.90;64.30;;;;;;5064122;28;44507;-77
2022/09/30 12:48:23;;;;;;;1.20;1.20;;;19.80;64.30;;;;;;5059905;28;43483;-74
2022/09/30 12:50:53;;;;;;;1.40;1.40;;;19.80;64.50;;;;;;5051216;28;43957;-74
2022/09/30 12:53:22;;;;;;;1.40;1.40;;;19.80;64.70;;;;;;5054904;28;43456;-75
2022/09/30 12:55:50;;;;;;;1.30;1.30;;;19.70;64.70;;;;;;5066453;28;43474;-76
2022/09/30 12:58:21;;;;;;;1.40;1.40;;;19.70;64.60;;;;;;5040068;28;43497;-75
2022/09/30 13:01:07;;;;;;;1.40;1.40;;;19.70;64.70;;;;;;5057189;28;43884;-76
2022/09/30 13:03:52;;;;;;;1.20;1.20;;;19.70;64.70;;;;;;5054155;28;43467;-74
2022/09/30 13:06:20;;;;;;;1.50;1.50;;;19.70;64.70;;;;;;5057114;28;43813;-77
2022/09/30 13:09:17;;;;;;;1.40;1.40;;;19.70;65.00;;;;;;5058645;28;44704;-76
2022/09/30 13:11:46;;;;;;;1.30;1.30;;;19.70;64.80;;;;;;5062416;28;43590;-78
2022/09/30 13:14:31;;;;;;;1.30;1.30;;;19.70;64.70;;;;;;5057152;28;44127;-77